Time;durP1;ratioP1;P1;durP2;ratioP2;P2;SDS_P1;SDS_P2;PMS_P1;PMS_P2;Temp;Humidity;BMP_temperature;BMP_pressure;BME280_temperature;BME280_humidity;BME280_pressure;Samples;Min_cycle;Max_cycle;Signal;HPM_P1;HPM_P2
2023/04/23 00:01:59;;;;;;;753.95;180.82;;;;;;;11.55;57.90;101243.88;5072189;28;20464;-79
2023/04/23 00:04:28;;;;;;;751.05;180.63;;;;;;;11.54;57.61;101232.41;5059899;28;20442;-80
2023/04/23 00:06:53;;;;;;;726.78;172.88;;;;;;;11.61;57.59;101237.88;5059670;28;20499;-80
2023/04/23 00:09:22;;;;;;;725.30;172.33;;;;;;;11.66;57.64;101255.00;5062809;28;20914;-79
2023/04/23 00:11:48;;;;;;;721.08;171.05;;;;;;;11.59;57.77;101238.03;5062605;28;20385;-79
2023/04/23 00:14:13;;;;;;;710.38;167.73;;;;;;;11.60;57.56;101234.41;5060367;28;20442;-78
2023/04/23 00:16:39;;;;;;;709.83;166.90;;;;;;;11.62;57.44;101232.41;5092650;28;20884;-79
2023/04/23 00:19:05;;;;;;;697.35;163.90;;;;;;;11.56;57.71;101238.41;5058748;28;20388;-79
2023/04/23 00:21:31;;;;;;;693.73;163.30;;;;;;;11.46;58.24;101233.22;5059332;28;20373;-79
2023/04/23 00:23:56;;;;;;;673.77;158.13;;;;;;;11.43;58.35;101245.97;5058537;28;20380;-79
2023/04/23 00:26:22;;;;;;;667.80;156.95;;;;;;;11.48;58.06;101246.34;5062540;28;20384;-80
2023/04/23 00:28:48;;;;;;;664.67;155.97;;;;;;;11.57;57.79;101241.88;5061506;28;20369;-80
2023/04/23 00:31:13;;;;;;;656.15;154.70;;;;;;;11.47;57.84;101240.19;5059276;28;20868;-79
2023/04/23 00:33:39;;;;;;;655.47;155.10;;;;;;;11.24;58.75;101236.50;5057615;28;20383;-79
2023/04/23 00:36:04;;;;;;;652.03;153.33;;;;;;;11.09;59.00;101238.91;5056675;28;20426;-79
2023/04/23 00:38:30;;;;;;;637.78;151.13;;;;;;;11.13;59.06;101244.72;5055973;28;20503;-79
2023/04/23 00:40:55;;;;;;;627.10;148.88;;;;;;;11.23;58.42;101240.13;5053194;28;20384;-80
2023/04/23 00:43:21;;;;;;;635.93;150.27;;;;;;;11.28;57.97;101240.47;5054987;28;20471;-80
2023/04/23 00:45:47;;;;;;;649.93;152.57;;;;;;;11.36;57.67;101245.81;5056690;28;20513;-79
2023/04/23 00:48:13;;;;;;;644.15;152.07;;;;;;;11.32;57.52;101241.81;5058112;28;20373;-79
2023/04/23 00:50:38;;;;;;;634.75;150.32;;;;;;;11.19;57.83;101244.09;5057689;28;20385;-79
2023/04/23 00:53:04;;;;;;;627.03;148.15;;;;;;;11.10;58.43;101248.53;5056649;28;20463;-78
2023/04/23 00:55:30;;;;;;;624.55;147.07;;;;;;;11.22;57.96;101246.44;5055300;28;20393;-79
2023/04/23 00:57:55;;;;;;;622.85;147.07;;;;;;;11.14;57.99;101230.47;5055805;28;20948;-77
2023/04/23 01:00:21;;;;;;;625.87;148.30;;;;;;;11.21;57.96;101240.28;5055928;28;20376;-78
2023/04/23 01:02:48;;;;;;;630.80;148.10;;;;;;;11.19;57.89;101238.78;5053128;28;20377;-78
2023/04/23 01:05:16;;;;;;;619.23;146.70;;;;;;;11.22;57.96;101247.25;5054062;28;20383;-78
2023/04/23 01:07:43;;;;;;;622.65;147.23;;;;;;;11.15;58.03;101243.59;5055431;28;20404;-79
2023/04/23 01:10:10;;;;;;;614.13;145.50;;;;;;;11.05;58.38;101235.75;5055147;28;20381;-79
2023/04/23 01:12:36;;;;;;;607.67;144.88;;;;;;;11.08;58.12;101242.56;5056080;28;20401;-78
2023/04/23 01:15:02;;;;;;;617.73;146.37;;;;;;;11.02;57.97;101229.94;5055487;28;20475;-79
2023/04/23 01:17:28;;;;;;;610.00;144.83;;;;;;;10.93;58.32;101229.09;5085126;28;20404;-78
2023/04/23 01:19:53;;;;;;;413.13;110.53;;;;;;;10.73;58.78;101225.81;5051816;28;20805;-78
2023/04/23 01:22:19;;;;;;;325.77;96.18;;;;;;;10.64;58.79;101227.63;5051527;28;20377;-79
2023/04/23 01:24:46;;;;;;;413.00;110.18;;;;;;;10.61;58.94;101227.13;5052143;28;21207;-79
2023/04/23 01:27:11;;;;;;;425.73;111.63;;;;;;;10.63;59.02;101225.13;5054345;28;20415;-79
2023/04/23 01:29:38;;;;;;;387.27;106.17;;;;;;;10.67;58.74;101237.91;5054943;28;20373;-79
2023/04/23 01:32:04;;;;;;;398.88;107.70;;;;;;;10.70;58.78;101234.94;5053652;28;20375;-78
2023/04/23 01:34:31;;;;;;;392.33;107.28;;;;;;;10.70;58.65;101236.78;5053454;28;20377;-78
2023/04/23 01:36:57;;;;;;;372.33;103.60;;;;;;;10.64;58.88;101243.53;5054686;28;20449;-79
2023/04/23 01:39:23;;;;;;;368.25;104.07;;;;;;;10.68;58.70;101233.44;5054323;28;20372;-79
2023/04/23 01:41:49;;;;;;;366.90;104.37;;;;;;;10.81;58.25;101243.63;5053652;28;20368;-78
2023/04/23 01:44:15;;;;;;;363.97;103.27;;;;;;;10.81;58.14;101235.66;5053577;28;20376;-79
2023/04/23 01:46:41;;;;;;;371.50;104.60;;;;;;;10.96;57.77;101241.19;5054083;28;20730;-79
2023/04/23 01:49:07;;;;;;;381.37;105.83;;;;;;;11.10;57.07;101244.06;5055339;28;20387;-79
2023/04/23 01:51:33;;;;;;;379.27;106.38;;;;;;;11.14;56.84;101244.56;5055097;28;20821;-78
2023/04/23 01:53:59;;;;;;;381.98;106.50;;;;;;;11.08;56.86;101234.63;5057942;28;20792;-79
2023/04/23 01:56:26;;;;;;;391.02;108.00;;;;;;;11.19;57.06;101242.28;5061760;28;20483;-80
2023/04/23 01:58:52;;;;;;;404.25;110.40;;;;;;;11.22;56.69;101239.31;5058230;28;20457;-80
2023/04/23 02:01:17;;;;;;;403.27;110.27;;;;;;;11.16;56.95;101245.25;5057270;28;20881;-79
2023/04/23 02:03:44;;;;;;;381.07;106.67;;;;;;;10.94;57.51;101236.03;5056453;28;20384;-79
2023/04/23 02:06:10;;;;;;;397.50;109.72;;;;;;;10.88;57.97;101239.34;5055144;28;20412;-78
2023/04/23 02:08:36;;;;;;;416.02;111.28;;;;;;;10.87;58.02;101241.16;5054459;28;20408;-80
2023/04/23 02:11:01;;;;;;;413.30;110.93;;;;;;;10.88;57.63;101239.34;5059017;28;20390;-79
2023/04/23 02:13:27;;;;;;;414.57;110.40;;;;;;;10.98;57.52;101233.91;5059880;28;20404;-79
2023/04/23 02:15:52;;;;;;;409.80;109.87;;;;;;;11.12;57.18;101243.09;5055876;28;20376;-79
2023/04/23 02:18:18;;;;;;;395.50;108.93;;;;;;;11.07;57.26;101232.94;5061828;28;20407;-79
2023/04/23 02:20:43;;;;;;;400.57;109.63;;;;;;;11.15;57.28;101242.78;5074957;28;20917;-79
2023/04/23 02:23:09;;;;;;;410.67;111.97;;;;;;;11.18;57.01;101237.97;5075387;28;20806;-78
2023/04/23 02:25:37;;;;;;;397.08;109.47;;;;;;;11.13;56.88;101234.97;5074952;28;20386;-78
2023/04/23 02:28:05;;;;;;;395.50;108.47;;;;;;;11.23;56.80;101232.16;5072925;28;20880;-78
2023/04/23 02:30:32;;;;;;;396.52;108.20;;;;;;;11.32;56.74;101235.69;5073022;28;20383;-79
2023/04/23 02:32:57;;;;;;;386.48;106.95;;;;;;;11.34;56.48;101233.69;5072337;28;20387;-79
2023/04/23 02:35:23;;;;;;;388.88;107.72;;;;;;;11.34;56.48;101237.16;5071939;28;20394;-79
2023/04/23 02:37:50;;;;;;;385.60;107.40;;;;;;;11.31;56.60;101232.19;5070766;28;20399;-79
2023/04/23 02:40:15;;;;;;;377.05;108.00;;;;;;;11.23;56.90;101233.00;5055685;28;20451;-80
2023/04/23 02:42:41;;;;;;;384.50;108.73;;;;;;;11.20;57.38;101235.13;5081047;28;20400;-79
2023/04/23 02:45:07;;;;;;;406.23;111.60;;;;;;;11.17;57.83;101243.44;5052998;28;20398;-79
2023/04/23 02:47:32;;;;;;;397.05;110.82;;;;;;;11.14;58.04;101247.22;5054663;28;22134;-79
2023/04/23 02:50:01;;;;;;;386.00;107.40;;;;;;;11.02;58.18;101241.41;5056168;28;20968;-79
2023/04/23 02:52:27;;;;;;;387.42;107.05;;;;;;;10.84;58.76;101232.66;5071674;28;20399;-79
2023/04/23 02:54:52;;;;;;;390.02;107.43;;;;;;;10.92;58.62;101253.13;5072313;28;20390;-80
2023/04/23 02:57:18;;;;;;;387.00;107.47;;;;;;;10.90;58.87;101240.84;5073747;28;20434;-80
2023/04/23 02:59:43;;;;;;;390.47;108.10;;;;;;;10.94;58.56;101241.34;5073581;28;20415;-79
2023/04/23 03:02:09;;;;;;;371.35;105.00;;;;;;;10.96;58.67;101249.97;5071599;28;20402;-79
2023/04/23 03:04:35;;;;;;;367.70;104.28;;;;;;;10.86;58.83;101252.75;5071935;28;20481;-78
2023/04/23 03:07:00;;;;;;;375.58;106.10;;;;;;;10.68;59.33;101244.06;5091910;28;20418;-79
2023/04/23 03:09:26;;;;;;;380.90;106.27;;;;;;;10.65;59.46;101241.72;5090725;28;20387;-79
2023/04/23 03:11:51;;;;;;;380.35;106.20;;;;;;;10.64;59.39;101245.34;5084039;28;20447;-79
2023/04/23 03:14:17;;;;;;;386.13;107.63;;;;;;;10.70;59.16;101247.38;5074723;28;20387;-79
2023/04/23 03:16:42;;;;;;;390.40;108.20;;;;;;;10.74;58.76;101237.28;5074678;28;20476;-79
2023/04/23 03:19:08;;;;;;;391.13;108.00;;;;;;;10.90;58.36;101250.63;5071399;28;20397;-79
2023/04/23 03:21:33;;;;;;;378.83;105.77;;;;;;;10.86;58.03;101241.31;5072262;28;20393;-79
2023/04/23 03:23:59;;;;;;;369.60;103.80;;;;;;;10.87;58.23;101259.72;5072007;28;20895;-78
2023/04/23 03:26:24;;;;;;;372.53;104.07;;;;;;;10.83;58.49;101258.38;5069611;28;20482;-78
2023/04/23 03:28:49;;;;;;;367.13;103.63;;;;;;;10.96;58.23;101254.47;5070487;28;20382;-78
2023/04/23 03:31:15;;;;;;;375.00;105.67;;;;;;;10.97;58.12;101240.22;5070561;28;20383;-79
2023/04/23 03:33:40;;;;;;;376.20;104.90;;;;;;;11.08;57.58;101250.53;5070502;28;20405;-78
2023/04/23 03:36:06;;;;;;;379.57;104.53;;;;;;;11.06;57.77;101252.53;5070358;28;20397;-78
2023/04/23 03:38:31;;;;;;;374.27;104.33;;;;;;;11.07;57.56;101255.00;5074395;28;20410;-77
2023/04/23 03:40:57;;;;;;;357.30;101.50;;;;;;;11.06;57.40;101250.69;5078390;28;20397;-78
2023/04/23 03:43:23;;;;;;;355.17;101.60;;;;;;;11.12;56.94;101251.03;5073039;28;20387;-78
2023/04/23 03:45:48;;;;;;;351.17;101.40;;;;;;;11.13;57.29;101261.50;5069620;28;20469;-79
2023/04/23 03:48:14;;;;;;;354.70;101.83;;;;;;;11.10;57.41;101262.63;5069620;28;20375;-78
2023/04/23 03:50:39;;;;;;;350.55;101.15;;;;;;;11.15;57.05;101248.91;5070020;28;20383;-79
2023/04/23 03:53:06;;;;;;;356.10;102.27;;;;;;;11.20;56.82;101251.91;5070552;28;20803;-79
2023/04/23 03:55:32;;;;;;;360.38;104.03;;;;;;;11.20;56.98;101259.88;5073852;28;20882;-77
2023/04/23 03:58:00;;;;;;;358.47;103.13;;;;;;;11.05;57.34;101262.28;5075781;28;20403;-80
2023/04/23 04:00:26;;;;;;;349.90;102.35;;;;;;;10.92;58.19;101272.50;5069666;28;20400;-79
2023/04/23 04:02:51;;;;;;;357.60;103.00;;;;;;;10.83;57.95;101261.03;5055837;28;20383;-79
2023/04/23 04:05:16;;;;;;;367.13;104.00;;;;;;;10.78;58.65;101278.41;5070175;28;20429;-79
2023/04/23 04:07:42;;;;;;;353.63;101.25;;;;;;;10.60;58.92;101270.50;5070550;28;20399;-79
2023/04/23 04:10:08;;;;;;;354.33;102.17;;;;;;;10.73;58.58;101273.56;5068900;28;20483;-79
2023/04/23 04:12:33;;;;;;;361.60;102.60;;;;;;;10.86;58.00;101270.50;5068702;28;20451;-77
2023/04/23 04:14:59;;;;;;;357.93;102.73;;;;;;;10.80;58.09;101269.28;5071356;28;20383;-78
2023/04/23 04:17:24;;;;;;;355.38;101.68;;;;;;;10.72;58.34;101282.53;5072716;28;20410;-77
2023/04/23 04:19:50;;;;;;;350.43;101.33;;;;;;;10.69;58.46;101275.69;5073352;28;20494;-78
2023/04/23 04:22:16;;;;;;;348.63;101.53;;;;;;;10.77;58.27;101282.03;5071842;28;20390;-80
2023/04/23 04:24:42;;;;;;;355.13;101.87;;;;;;;10.74;58.59;101285.03;5076720;28;20402;-79
2023/04/23 04:27:08;;;;;;;352.92;102.25;;;;;;;10.71;58.81;101296.75;5073458;28;20379;-79
2023/04/23 04:29:34;;;;;;;358.95;103.18;;;;;;;10.63;59.12;101288.75;5073461;28;20387;-80
2023/04/23 04:32:01;;;;;;;338.88;99.32;;;;;;;10.66;59.02;101299.88;5076694;28;20390;-78
2023/04/23 04:34:27;;;;;;;342.60;100.22;;;;;;;10.67;59.09;101300.72;5076053;28;20474;-78
2023/04/23 04:36:52;;;;;;;343.35;99.93;;;;;;;10.67;59.15;101301.53;5072229;28;20855;-81
2023/04/23 04:39:19;;;;;;;340.83;99.13;;;;;;;10.61;59.37;101293.41;5073557;28;20378;-79
2023/04/23 04:41:45;;;;;;;345.55;100.45;;;;;;;10.74;59.58;101295.63;5072028;28;20395;-79
2023/04/23 04:44:13;;;;;;;340.95;100.35;;;;;;;10.89;59.13;101297.53;5073605;28;20395;-79
2023/04/23 04:46:39;;;;;;;348.08;100.72;;;;;;;11.04;58.75;101292.47;5075613;28;20383;-81
2023/04/23 04:49:07;;;;;;;338.95;98.95;;;;;;;11.18;58.54;101299.00;5073065;28;20405;-78
2023/04/23 04:51:32;;;;;;;332.75;98.28;;;;;;;11.06;59.05;101287.00;5073439;28;20822;-79
2023/04/23 04:53:58;;;;;;;332.08;97.55;;;;;;;11.06;59.07;101292.31;5072912;28;20917;-80
2023/04/23 04:56:24;;;;;;;328.97;97.60;;;;;;;11.06;59.38;101306.41;5072595;28;20462;-79
2023/04/23 04:58:50;;;;;;;336.30;101.88;;;;;;;11.19;58.99;101305.13;5072536;28;20894;-79
2023/04/23 05:01:17;;;;;;;331.08;100.38;;;;;;;11.33;58.99;101304.53;5072234;28;20386;-79
2023/04/23 05:03:43;;;;;;;332.25;98.53;;;;;;;11.61;58.04;101299.81;5072696;28;20897;-79
2023/04/23 05:06:08;;;;;;;324.83;97.65;;;;;;;11.75;58.10;101306.28;5073016;28;20414;-79
2023/04/23 05:08:34;;;;;;;322.15;97.57;;;;;;;11.91;57.82;101307.38;5072178;28;20497;-78
2023/04/23 05:11:00;;;;;;;321.13;97.53;;;;;;;12.06;57.51;101297.72;5066070;28;20947;-79
2023/04/23 05:13:26;;;;;;;318.92;96.97;;;;;;;12.21;57.64;101301.41;5072710;28;20458;-78
2023/04/23 05:15:51;;;;;;;316.63;97.63;;;;;;;12.34;57.29;101305.38;5071280;28;20474;-80
2023/04/23 05:18:17;;;;;;;311.20;95.73;;;;;;;12.50;56.95;101315.19;5072676;28;20514;-79
2023/04/23 05:20:42;;;;;;;307.13;95.60;;;;;;;12.49;57.07;101303.69;5072779;28;20391;-79
2023/04/23 05:23:07;;;;;;;312.10;96.20;;;;;;;12.61;57.08;101305.03;5077231;28;20450;-79
2023/04/23 05:25:34;;;;;;;307.67;96.37;;;;;;;12.73;56.59;101302.84;5082295;28;20469;-80
2023/04/23 05:28:00;;;;;;;292.15;93.60;;;;;;;12.81;56.25;101300.16;5075901;28;20418;-79
2023/04/23 05:30:26;;;;;;;292.10;92.90;;;;;;;12.81;56.34;101317.94;5072580;28;20426;-79
2023/04/23 05:32:51;;;;;;;284.77;91.55;;;;;;;12.68;56.48;101313.16;5072728;28;20477;-79
2023/04/23 05:35:17;;;;;;;279.63;91.30;;;;;;;12.67;56.18;101311.47;5072936;28;20395;-81
2023/04/23 05:37:43;;;;;;;286.80;91.97;;;;;;;12.58;56.43;101315.16;5072135;28;20483;-80
2023/04/23 05:40:09;;;;;;;290.00;92.20;;;;;;;12.62;56.35;101317.34;5074613;28;20398;-79
2023/04/23 05:42:35;;;;;;;281.70;91.00;;;;;;;12.63;56.06;101326.94;5078022;28;20418;-79
2023/04/23 05:45:02;;;;;;;271.98;88.35;;;;;;;12.43;56.42;101320.34;5072785;28;20432;-79
2023/04/23 05:47:28;;;;;;;279.45;89.65;;;;;;;12.29;56.87;101324.50;5072848;28;20407;-79
2023/04/23 05:49:56;;;;;;;278.40;89.65;;;;;;;12.48;56.80;101331.31;5072731;28;20459;-79
2023/04/23 05:52:22;;;;;;;281.73;89.70;;;;;;;12.53;56.29;101334.31;5072024;28;20398;-79
2023/04/23 05:54:47;;;;;;;274.27;88.93;;;;;;;12.57;56.51;101345.44;5072046;28;20394;-79
2023/04/23 05:57:13;;;;;;;282.13;89.57;;;;;;;12.56;56.54;101341.91;5077650;28;20399;-81
2023/04/23 05:59:38;;;;;;;278.37;89.37;;;;;;;12.79;56.16;101346.56;5071210;28;21112;-80
2023/04/23 06:02:04;;;;;;;277.85;88.88;;;;;;;12.86;55.99;101344.88;5066517;28;20393;-79
2023/04/23 06:04:30;;;;;;;270.10;88.15;;;;;;;12.83;56.04;101339.91;5051768;28;20424;-79
2023/04/23 06:06:55;;;;;;;276.83;89.43;;;;;;;12.89;55.79;101325.94;5052755;28;20430;-79
2023/04/23 06:09:21;;;;;;;280.77;90.30;;;;;;;13.05;55.64;101322.38;5052111;28;20399;-79
2023/04/23 06:11:49;;;;;;;278.52;89.93;;;;;;;13.19;55.41;101326.16;5052412;28;21481;-79
2023/04/23 06:14:15;;;;;;;284.00;90.45;;;;;;;13.21;55.25;101318.81;5073822;28;20431;-79
2023/04/23 06:16:40;;;;;;;287.85;91.13;;;;;;;13.42;55.04;101315.59;5076450;28;21092;-78
2023/04/23 06:19:06;;;;;;;282.77;90.47;;;;;;;13.54;54.91;101322.22;5072483;28;20429;-79
2023/04/23 06:21:31;;;;;;;275.93;92.57;;;;;;;13.92;54.57;101326.81;5057494;28;20427;-81
2023/04/23 06:23:57;;;;;;;263.85;93.03;;;;;;;14.03;54.22;101317.59;5067172;28;20478;-80
2023/04/23 06:26:22;;;;;;;285.63;92.27;;;;;;;14.17;53.77;101331.97;5070483;28;20409;-79
2023/04/23 06:28:48;;;;;;;291.17;91.33;;;;;;;14.19;53.67;101313.94;5071209;28;20419;-78
2023/04/23 06:31:13;;;;;;;305.60;93.13;;;;;;;14.41;53.40;101320.28;5069834;28;20406;-79
2023/04/23 06:33:39;;;;;;;287.33;91.53;;;;;;;14.42;52.88;101316.59;5071092;28;20466;-79
2023/04/23 06:36:07;;;;;;;279.65;90.35;;;;;;;14.67;52.46;101317.22;5070837;28;20383;-78
2023/04/23 06:38:32;;;;;;;200.50;75.50;;;;;;;14.70;51.77;101314.19;5070167;28;20902;-80
2023/04/23 06:40:58;;;;;;;187.77;72.77;;;;;;;14.52;52.13;101312.66;5071022;28;20484;-79
2023/04/23 06:43:25;;;;;;;185.60;73.18;;;;;;;14.57;52.15;101322.78;5070436;28;20391;-78
2023/04/23 06:45:50;;;;;;;184.25;73.25;;;;;;;14.68;52.27;101321.56;5070579;28;20748;-80
2023/04/23 06:48:17;;;;;;;201.37;75.83;;;;;;;15.04;51.93;101307.50;5070321;28;20379;-79
2023/04/23 06:51:01;;;;;;;199.93;76.50;;;;;;;15.21;51.28;101306.25;5071450;28;20375;-79
2023/04/23 06:53:26;;;;;;;222.55;80.75;;;;;;;15.29;51.42;101300.81;5071452;28;20379;-79
2023/04/23 06:55:52;;;;;;;224.50;81.00;;;;;;;15.56;50.98;101309.16;5071176;28;20387;-80
2023/04/23 06:58:17;;;;;;;194.23;74.73;;;;;;;15.57;51.00;101304.63;5070342;28;20422;-80
2023/04/23 07:00:43;;;;;;;192.55;73.82;;;;;;;15.72;50.81;101299.25;5069527;28;20383;-80
2023/04/23 07:03:08;;;;;;;153.13;66.17;;;;;;;15.96;50.14;101301.59;5070853;28;20425;-80
2023/04/23 07:05:34;;;;;;;161.85;67.70;;;;;;;16.04;50.04;101300.63;5071121;28;20379;-79
2023/04/23 07:07:59;;;;;;;160.70;67.73;;;;;;;16.23;49.71;101304.50;5074432;28;20436;-80
2023/04/23 07:10:24;;;;;;;148.38;65.03;;;;;;;16.29;49.35;101308.25;5078143;28;20430;-80
2023/04/23 07:12:50;;;;;;;141.13;63.80;;;;;;;16.38;49.02;101304.41;5073587;28;20921;-80
2023/04/23 07:15:16;;;;;;;139.30;63.25;;;;;;;16.49;48.53;101301.19;5081448;28;20405;-80
2023/04/23 07:17:41;;;;;;;152.13;66.00;;;;;;;16.61;48.38;101302.31;5080204;28;20502;-77
2023/04/23 07:20:07;;;;;;;144.77;63.92;;;;;;;16.66;47.79;101306.28;5069257;28;20419;-81
2023/04/23 07:22:33;;;;;;;143.57;63.70;;;;;;;16.75;46.96;101300.56;5065693;28;20387;-80
2023/04/23 07:25:00;;;;;;;114.60;57.95;;;;;;;16.79;47.01;101306.34;5073952;28;20422;-80
2023/04/23 07:27:25;;;;;;;101.75;55.63;;;;;;;16.89;47.05;101306.00;5076108;28;20401;-81
2023/04/23 07:29:51;;;;;;;112.63;57.20;;;;;;;16.88;46.69;101291.00;5070186;28;20847;-80
2023/04/23 07:32:17;;;;;;;105.15;56.58;;;;;;;17.09;46.72;101295.44;5067573;28;20426;-79
2023/04/23 07:34:42;;;;;;;113.28;57.38;;;;;;;17.18;46.82;101287.03;5067151;28;20405;-79
2023/04/23 07:37:08;;;;;;;122.07;60.43;;;;;;;17.23;46.53;101281.03;5068036;28;20398;-80
2023/04/23 07:39:33;;;;;;;129.10;61.40;;;;;;;17.29;46.51;101288.31;5068068;28;20476;-80
2023/04/23 07:42:00;;;;;;;133.73;61.87;;;;;;;17.34;46.32;101279.63;5067933;28;20387;-79
2023/04/23 07:44:26;;;;;;;124.05;59.72;;;;;;;17.34;45.67;101277.81;5069868;28;20924;-79
2023/04/23 07:46:52;;;;;;;124.07;59.67;;;;;;;17.35;45.87;101275.94;5069457;28;20393;-78
2023/04/23 07:49:17;;;;;;;123.20;58.70;;;;;;;17.48;45.72;101277.84;5076640;28;20518;-79
2023/04/23 07:51:43;;;;;;;122.30;59.53;;;;;;;17.55;45.51;101284.03;5076792;28;20374;-79
2023/04/23 07:54:08;;;;;;;123.73;60.17;;;;;;;17.53;45.47;101278.88;5082666;28;21198;-80
2023/04/23 07:56:35;;;;;;;129.20;60.57;;;;;;;17.69;45.42;101280.38;5080713;28;20386;-78
2023/04/23 07:59:00;;;;;;;136.43;62.30;;;;;;;17.66;45.60;101282.63;5082162;28;20409;-79
2023/04/23 08:01:26;;;;;;;139.18;63.63;;;;;;;17.63;45.98;101281.19;5081491;28;20982;-78
2023/04/23 08:03:54;;;;;;;94.47;52.13;;;;;;;17.84;45.70;101287.41;5086076;28;20391;-78
2023/04/23 08:06:20;;;;;;;132.07;61.75;;;;;;;17.94;45.73;101286.00;5083993;28;20384;-79
2023/04/23 08:08:46;;;;;;;131.27;62.33;;;;;;;18.09;45.16;101287.66;5082302;28;20405;-78
2023/04/23 08:11:11;;;;;;;133.47;62.43;;;;;;;17.98;44.79;101277.56;5084383;28;20430;-78
2023/04/23 08:13:37;;;;;;;145.02;64.20;;;;;;;18.05;44.74;101270.34;5083463;28;20461;-79
2023/04/23 08:16:03;;;;;;;155.27;65.93;;;;;;;18.18;44.52;101275.69;5085625;28;21087;-79
2023/04/23 08:18:29;;;;;;;155.57;66.55;;;;;;;18.27;44.85;101271.75;5083847;28;20482;-78
2023/04/23 08:20:58;;;;;;;130.48;61.15;;;;;;;18.34;44.46;101272.59;5084879;28;20490;-78
2023/04/23 08:23:23;;;;;;;146.00;63.88;;;;;;;18.43;44.33;101267.84;5082669;28;20890;-79
2023/04/23 08:25:49;;;;;;;149.80;64.57;;;;;;;18.47;43.94;101265.56;5080047;28;20398;-79
2023/04/23 08:28:15;;;;;;;152.97;66.10;;;;;;;18.53;43.82;101264.75;5072882;28;20390;-79
2023/04/23 08:30:40;;;;;;;152.95;66.05;;;;;;;18.57;43.60;101260.59;5073361;28;20390;-79
2023/04/23 08:33:06;;;;;;;153.33;65.53;;;;;;;18.56;43.59;101258.94;5072789;28;20399;-79
2023/04/23 08:35:31;;;;;;;159.85;67.25;;;;;;;18.59;43.78;101266.56;5072433;28;20386;-80
2023/04/23 08:37:57;;;;;;;164.73;67.25;;;;;;;18.68;43.45;101270.69;5074385;28;20899;-80
2023/04/23 08:40:22;;;;;;;157.00;66.87;;;;;;;18.85;43.34;101268.41;5074697;28;20387;-81
2023/04/23 08:42:56;;;;;;;178.32;70.13;;;;;;;18.98;42.84;101267.53;5072339;28;20391;-81
2023/04/23 08:45:22;;;;;;;193.88;73.85;;;;;;;18.95;42.39;101259.09;5057235;28;20387;-79
2023/04/23 08:47:48;;;;;;;192.73;74.35;;;;;;;19.01;42.31;101247.47;5068778;28;20378;-80
2023/04/23 08:50:17;;;;;;;205.10;76.03;;;;;;;19.05;42.06;101254.06;5071826;28;20391;-79
2023/04/23 08:52:49;;;;;;;205.18;75.80;;;;;;;19.09;42.47;101249.94;5072629;28;20389;-78
2023/04/23 08:55:17;;;;;;;236.02;81.32;;;;;;;19.17;42.14;101240.78;5072919;28;20383;-78
2023/04/23 08:57:44;;;;;;;232.60;81.25;;;;;;;19.27;42.28;101238.47;5083475;28;20944;-80
2023/04/23 09:00:11;;;;;;;242.88;83.65;;;;;;;19.36;42.17;101237.19;5077348;28;20379;-80
2023/04/23 09:02:40;;;;;;;277.83;89.85;;;;;;;19.46;41.58;101229.47;5079807;28;20383;-79
2023/04/23 09:05:05;;;;;;;276.00;89.93;;;;;;;19.56;41.87;101229.00;5074099;28;20472;-79
2023/04/23 09:07:33;;;;;;;290.50;91.45;;;;;;;19.37;41.07;101220.00;5084366;28;20395;-79
2023/04/23 09:09:58;;;;;;;353.65;102.47;;;;;;;19.35;41.17;101219.41;5074151;28;20472;-80
2023/04/23 09:12:24;;;;;;;356.10;102.80;;;;;;;19.45;40.87;101225.13;5075537;28;20382;-80
2023/04/23 09:14:50;;;;;;;350.00;101.97;;;;;;;19.53;41.25;101223.22;5081270;28;20482;-80
2023/04/23 09:17:17;;;;;;;328.07;98.57;;;;;;;19.46;41.03;101216.03;5079554;28;20431;-80
2023/04/23 09:19:44;;;;;;;362.43;104.17;;;;;;;19.54;40.88;101219.50;5081573;28;20382;-79
2023/04/23 09:22:09;;;;;;;355.65;102.78;;;;;;;19.63;40.49;101224.41;5092948;28;20385;-79
2023/04/23 09:24:35;;;;;;;345.38;101.35;;;;;;;19.59;39.78;101220.50;5093370;28;20726;-79
2023/04/23 09:27:02;;;;;;;363.80;103.33;;;;;;;19.56;40.14;101212.03;5058323;28;20396;-80
2023/04/23 09:29:29;;;;;;;351.50;101.80;;;;;;;19.69;39.71;101217.31;5051168;28;20396;-80
2023/04/23 09:32:06;;;;;;;349.83;101.63;;;;;;;19.68;39.71;101205.75;5052034;28;21480;-80
2023/04/23 09:34:34;;;;;;;350.60;102.07;;;;;;;19.74;39.60;101206.75;5056322;28;20916;-79
2023/04/23 09:37:00;;;;;;;351.13;101.72;;;;;;;19.91;39.47;101208.91;5071192;28;20465;-79
2023/04/23 09:39:25;;;;;;;358.33;102.40;;;;;;;19.92;38.92;101189.84;5064125;28;20827;-79
2023/04/23 09:41:52;;;;;;;360.97;103.47;;;;;;;20.05;39.18;101188.91;5066033;28;20884;-79
2023/04/23 09:44:23;;;;;;;457.75;119.05;;;;;;;20.15;39.15;101183.00;5056992;28;20397;-80
2023/04/23 09:46:49;;;;;;;576.97;140.20;;;;;;;20.18;38.87;101174.50;5063738;28;20385;-79
2023/04/23 09:49:15;;;;;;;575.80;139.52;;;;;;;20.31;38.91;101181.59;5068412;28;20815;-79
2023/04/23 09:51:47;;;;;;;573.88;138.95;;;;;;;20.22;38.37;101181.06;5068482;28;20970;-79
2023/04/23 09:54:20;;;;;;;582.27;141.03;;;;;;;20.38;38.53;101179.66;5070291;28;20878;-78
2023/04/23 09:56:51;;;;;;;368.40;104.28;;;;;;;20.46;38.11;101182.06;5071804;28;20387;-79
2023/04/23 09:59:24;;;;;;;381.45;107.45;;;;;;;20.51;38.29;101170.63;5071902;28;20886;-79
2023/04/23 10:01:51;;;;;;;508.27;126.65;;;;;;;20.20;38.05;101173.25;5070517;28;20371;-79
2023/04/23 10:04:19;;;;;;;484.53;122.20;;;;;;;20.22;38.44;101165.75;5073184;28;20533;-79
2023/04/23 10:06:45;;;;;;;494.05;124.13;;;;;;;20.38;38.34;101163.50;5071821;28;20375;-79
2023/04/23 10:09:11;;;;;;;497.13;125.00;;;;;;;20.60;38.10;101169.28;5073184;28;20375;-79
2023/04/23 10:11:37;;;;;;;487.80;123.17;;;;;;;20.42;37.37;101156.66;5072917;28;20391;-79
2023/04/23 10:14:03;;;;;;;487.55;123.22;;;;;;;20.29;36.75;101144.13;5071986;28;20389;-78
2023/04/23 10:16:28;;;;;;;491.33;123.93;;;;;;;20.38;36.62;101156.28;5071380;28;20390;-78
2023/04/23 10:18:57;;;;;;;513.77;127.40;;;;;;;20.54;36.87;101137.84;5071997;28;20438;-77
2023/04/23 10:21:28;;;;;;;503.48;126.25;;;;;;;20.52;36.76;101132.69;5071956;28;20370;-79
2023/04/23 10:23:55;;;;;;;513.83;127.17;;;;;;;20.48;35.58;101128.81;5071905;28;20387;-78
2023/04/23 10:26:23;;;;;;;459.38;119.43;;;;;;;20.39;35.70;101128.28;5072095;28;20379;-78
2023/04/23 10:28:52;;;;;;;492.95;124.20;;;;;;;20.43;35.53;101140.25;5072923;28;20856;-78
2023/04/23 10:31:19;;;;;;;494.67;124.05;;;;;;;20.60;35.19;101121.63;5072173;28;20411;-80
2023/04/23 10:33:46;;;;;;;492.10;124.28;;;;;;;20.71;35.38;101117.38;5073079;28;20401;-79
2023/04/23 10:36:12;;;;;;;483.67;123.17;;;;;;;20.75;35.23;101120.44;5078425;28;20406;-80
2023/04/23 10:38:40;;;;;;;484.25;122.40;;;;;;;20.83;35.54;101120.09;5093019;28;20453;-78
2023/04/23 10:41:07;;;;;;;486.08;123.93;;;;;;;20.81;35.47;101112.25;5088699;28;20390;-77
2023/04/23 10:43:33;;;;;;;496.15;125.03;;;;;;;20.77;35.85;101116.44;5089843;28;20443;-78
2023/04/23 10:45:59;;;;;;;513.20;127.53;;;;;;;20.64;35.55;101105.03;5089593;28;20932;-80
2023/04/23 10:48:27;;;;;;;518.05;128.38;;;;;;;20.88;35.86;101097.88;5078998;28;20385;-80
2023/04/23 10:50:59;;;;;;;532.10;130.77;;;;;;;21.02;35.69;101098.50;5083262;28;20385;-79
2023/04/23 10:53:25;;;;;;;547.65;134.27;;;;;;;20.98;35.42;101096.25;5094426;28;20449;-81